createdAt,value
2023-03-02T00:00:33.180Z,2.92
2023-03-02T00:03:00.548Z,3.30
2023-03-02T00:05:28.291Z,2.88
2023-03-02T00:07:55.379Z,3.00
2023-03-02T00:10:22.344Z,2.70
2023-03-02T00:12:49.188Z,2.67
2023-03-02T00:15:15.993Z,2.97
2023-03-02T00:17:42.830Z,2.97
2023-03-02T00:20:10.600Z,3.10
2023-03-02T00:22:46.914Z,3.50
2023-03-02T00:25:14.924Z,3.13
2023-03-02T00:27:41.859Z,3.85
2023-03-02T00:30:09.344Z,3.22
2023-03-02T00:32:36.324Z,2.50
2023-03-02T00:35:03.843Z,2.15
2023-03-02T00:37:30.638Z,2.58
2023-03-02T00:39:57.453Z,2.85
2023-03-02T00:42:24.227Z,2.10
2023-03-02T00:44:52.045Z,2.40
2023-03-02T00:47:18.780Z,2.30
2023-03-02T00:49:49.703Z,1.88
2023-03-02T00:52:17.321Z,2.05
2023-03-02T00:54:44.200Z,1.77
2023-03-02T00:57:11.032Z,1.85
2023-03-02T00:59:38.603Z,1.50
2023-03-02T01:02:23.870Z,2.40
2023-03-02T01:04:53.278Z,2.72
2023-03-02T01:07:25.096Z,3.03
2023-03-02T01:09:52.048Z,2.88
2023-03-02T01:12:19.112Z,2.45
2023-03-02T01:14:47.831Z,2.70
2023-03-02T01:17:15.115Z,1.88
2023-03-02T01:19:42.319Z,1.80
2023-03-02T01:22:09.555Z,1.55
2023-03-02T01:24:36.475Z,1.95
2023-03-02T01:27:03.346Z,1.33
2023-03-02T01:29:30.199Z,1.50
2023-03-02T01:31:57.305Z,1.23
2023-03-02T01:34:24.227Z,2.33
2023-03-02T01:36:51.051Z,1.60
2023-03-02T01:39:17.994Z,1.02
2023-03-02T01:41:45.736Z,1.40
2023-03-02T01:44:51.749Z,1.77
2023-03-02T01:47:29.042Z,1.60
2023-03-02T01:50:04.919Z,1.20
2023-03-02T01:52:39.817Z,1.33
2023-03-02T01:55:08.747Z,1.20
2023-03-02T01:57:43.808Z,1.63
2023-03-02T02:00:19.619Z,1.35
2023-03-02T02:02:47.918Z,0.93
2023-03-02T02:05:17.785Z,0.93
2023-03-02T02:07:44.829Z,1.27
2023-03-02T02:10:12.206Z,0.93
2023-03-02T02:12:39.088Z,1.52
2023-03-02T02:15:06.917Z,1.65
2023-03-02T02:17:33.811Z,1.13
2023-03-02T02:20:19.789Z,1.33
2023-03-02T02:23:10.561Z,1.08
2023-03-02T02:25:45.166Z,1.93
2023-03-02T02:28:14.799Z,1.92
2023-03-02T02:30:42.579Z,1.45
2023-03-02T02:33:13.654Z,1.27
2023-03-02T02:35:41.163Z,1.95
2023-03-02T02:38:08.883Z,1.40
2023-03-02T02:40:42.225Z,0.93
2023-03-02T02:43:15.413Z,1.38
2023-03-02T02:45:42.417Z,1.73
2023-03-02T02:48:15.552Z,1.48
2023-03-02T02:50:42.850Z,1.65
2023-03-02T02:53:14.632Z,1.02
2023-03-02T02:55:42.402Z,1.40
2023-03-02T02:58:29.557Z,1.60
2023-03-02T03:00:57.571Z,1.02
2023-03-02T03:03:30.885Z,1.13
2023-03-02T03:06:06.300Z,1.58
2023-03-02T03:08:59.547Z,0.95
2023-03-02T03:11:35.193Z,1.40
2023-03-02T03:14:07.827Z,1.33
2023-03-02T03:16:36.108Z,1.33
2023-03-02T03:22:55.884Z,1.30
2023-03-02T03:25:25.787Z,1.30
2023-03-02T03:27:54.110Z,1.40
2023-03-02T03:30:22.356Z,1.48
2023-03-02T03:32:49.715Z,1.00
2023-03-02T03:35:17.098Z,1.40
2023-03-02T03:37:44.342Z,1.10
2023-03-02T03:40:11.951Z,0.88
2023-03-02T03:42:42.294Z,1.20
2023-03-02T03:45:09.375Z,1.30
2023-03-02T03:47:37.637Z,1.27
2023-03-02T03:50:06.343Z,1.40
2023-03-02T03:52:33.547Z,0.90
2023-03-02T03:55:23.092Z,0.88
2023-03-02T03:57:50.591Z,0.93
2023-03-02T04:00:18.104Z,0.93
2023-03-02T04:03:00.875Z,1.05
2023-03-02T04:05:31.584Z,1.00
2023-03-02T04:08:02.380Z,1.17
2023-03-02T04:10:30.354Z,1.23
2023-03-02T04:12:57.326Z,1.45
2023-03-02T04:15:25.104Z,0.90
2023-03-02T04:17:52.472Z,1.38
2023-03-02T04:20:21.917Z,1.23
2023-03-02T04:22:52.408Z,1.40
2023-03-02T04:25:21.352Z,1.33
2023-03-02T04:27:50.784Z,1.38
2023-03-02T04:30:20.134Z,0.85
2023-03-02T04:32:47.273Z,1.23
2023-03-02T04:35:15.490Z,1.35
2023-03-02T04:37:42.810Z,1.30
2023-03-02T04:40:10.305Z,1.40
2023-03-02T04:42:37.151Z,0.80
2023-03-02T04:45:04.153Z,1.10
2023-03-02T04:47:30.937Z,0.98
2023-03-02T04:49:57.793Z,1.55
2023-03-02T04:52:25.368Z,2.10
2023-03-02T04:54:52.237Z,1.92
2023-03-02T04:57:19.053Z,2.35
2023-03-02T04:59:46.015Z,1.85
2023-03-02T05:02:12.883Z,1.67
2023-03-02T05:04:40.698Z,1.58
2023-03-02T05:07:07.634Z,2.60
2023-03-02T05:09:34.534Z,2.60
2023-03-02T05:12:01.845Z,1.80
2023-03-02T05:14:29.300Z,2.13
2023-03-02T05:16:56.073Z,2.08
2023-03-02T05:19:22.936Z,2.70
2023-03-02T05:21:49.849Z,1.83
2023-03-02T05:24:16.943Z,1.67
2023-03-02T05:26:43.908Z,1.70
2023-03-02T05:29:10.714Z,2.33
2023-03-02T05:31:39.027Z,1.70
2023-03-02T05:34:07.104Z,2.38
2023-03-02T05:36:34.347Z,1.65
2023-03-02T05:39:01.982Z,6.05
2023-03-02T05:41:28.802Z,5.15
2023-03-02T05:43:55.681Z,3.17
2023-03-02T05:50:10.406Z,2.53
2023-03-02T05:52:37.334Z,2.65
2023-03-02T05:55:04.685Z,2.67
2023-03-02T05:57:31.608Z,2.63
2023-03-02T05:59:58.480Z,2.30
2023-03-02T06:02:25.330Z,2.33
2023-03-02T06:04:52.525Z,3.70
2023-03-02T06:07:19.417Z,2.88
2023-03-02T06:09:46.316Z,2.65
2023-03-02T06:12:13.339Z,3.20
2023-03-02T06:14:40.420Z,2.35
2023-03-02T06:17:07.470Z,2.65
2023-03-02T06:19:36.861Z,3.28
2023-03-02T06:22:04.218Z,3.10
2023-03-02T06:24:31.481Z,2.90
2023-03-02T06:26:58.387Z,2.63
2023-03-02T06:29:25.393Z,3.83
2023-03-02T06:31:56.354Z,3.25
2023-03-02T06:34:23.493Z,2.60
2023-03-02T06:36:50.355Z,2.78
2023-03-02T06:39:18.130Z,3.05
2023-03-02T06:41:45.760Z,2.85
2023-03-02T06:44:13.332Z,2.90
2023-03-02T06:46:40.337Z,3.25
2023-03-02T06:49:07.291Z,2.85
2023-03-02T06:51:34.548Z,3.28
2023-03-02T06:54:01.688Z,4.65
2023-03-02T06:56:28.655Z,3.38
2023-03-02T06:58:55.545Z,3.22
2023-03-02T07:01:22.555Z,3.50
2023-03-02T07:03:49.569Z,3.58
2023-03-02T07:06:16.647Z,2.78
2023-03-02T07:08:43.535Z,3.58
2023-03-02T07:11:11.669Z,4.70
2023-03-02T07:13:38.811Z,3.58
2023-03-02T07:16:06.759Z,3.42
2023-03-02T07:18:35.091Z,4.85
2023-03-02T07:21:03.214Z,4.45
2023-03-02T07:23:30.300Z,3.97
2023-03-02T07:25:58.023Z,3.40
2023-03-02T07:28:25.522Z,3.40
2023-03-02T07:30:53.644Z,2.97
2023-03-02T07:33:21.277Z,8.73
2023-03-02T07:35:48.605Z,3.65
2023-03-02T07:38:15.707Z,4.97
2023-03-02T07:40:43.522Z,8.00
2023-03-02T07:43:10.800Z,4.82
2023-03-02T07:45:38.437Z,5.18
2023-03-02T07:48:05.612Z,4.40
2023-03-02T07:50:32.668Z,4.07
2023-03-02T07:53:00.102Z,4.05
2023-03-02T07:55:27.564Z,3.60
2023-03-02T07:57:54.560Z,3.78
2023-03-02T08:00:21.862Z,4.50
2023-03-02T08:02:48.941Z,2.95
2023-03-02T08:05:15.994Z,3.45
2023-03-02T08:07:42.984Z,2.70
2023-03-02T08:10:10.890Z,3.45
2023-03-02T08:12:39.284Z,3.63
2023-03-02T08:15:11.469Z,3.50
2023-03-02T08:17:38.362Z,3.50
2023-03-02T08:20:06.115Z,3.33
2023-03-02T08:22:32.964Z,3.60
2023-03-02T08:24:59.843Z,3.50
2023-03-02T08:27:26.752Z,2.28
2023-03-02T08:29:54.702Z,2.67
2023-03-02T08:32:21.738Z,3.28
2023-03-02T08:34:52.009Z,3.80
2023-03-02T08:37:19.658Z,3.03
2023-03-02T08:39:49.299Z,3.67
2023-03-02T08:42:19.017Z,3.72
2023-03-02T08:44:46.181Z,4.10
2023-03-02T08:47:15.016Z,3.58
2023-03-02T08:52:15.575Z,4.88
2023-03-02T08:54:42.955Z,3.38
2023-03-02T08:57:12.924Z,4.70
2023-03-02T08:59:42.493Z,3.20
2023-03-02T09:02:12.621Z,4.75
2023-03-02T09:04:39.527Z,3.58
2023-03-02T09:07:07.016Z,4.10
2023-03-02T09:09:34.070Z,5.20
2023-03-02T09:12:01.141Z,3.00
2023-03-02T09:14:28.162Z,3.92
2023-03-02T09:16:55.469Z,4.55
2023-03-02T09:19:23.450Z,4.00
2023-03-02T09:21:50.613Z,4.50
2023-03-02T09:24:17.549Z,5.10
2023-03-02T09:26:44.656Z,3.45
2023-03-02T09:29:12.005Z,4.82
2023-03-02T09:31:39.127Z,4.45
2023-03-02T09:34:06.487Z,4.60
2023-03-02T09:36:34.943Z,4.60
2023-03-02T09:39:01.916Z,3.80
2023-03-02T09:41:45.616Z,5.13
2023-03-02T09:44:32.404Z,4.38
2023-03-02T09:47:09.638Z,3.60
2023-03-02T09:49:54.807Z,3.78
2023-03-02T09:52:41.972Z,3.25
2023-03-02T09:55:35.027Z,4.20
2023-03-02T09:58:05.476Z,4.50
2023-03-02T10:00:35.946Z,4.70
2023-03-02T10:03:17.140Z,3.85
2023-03-02T10:05:54.449Z,4.07
2023-03-02T10:08:23.908Z,4.70
2023-03-02T10:11:14.584Z,7.22
2023-03-02T10:13:47.711Z,4.83
2023-03-02T10:16:35.031Z,4.18
2023-03-02T10:19:10.987Z,4.75
2023-03-02T10:21:42.750Z,3.72
2023-03-02T10:24:21.254Z,3.63
2023-03-02T10:26:51.137Z,4.50
2023-03-02T10:29:23.442Z,4.07
2023-03-02T10:31:53.788Z,6.18
2023-03-02T10:34:21.322Z,4.68
2023-03-02T10:36:48.247Z,3.90
2023-03-02T10:39:16.145Z,4.88
2023-03-02T10:41:54.446Z,4.40
2023-03-02T10:44:22.975Z,4.35
2023-03-02T10:46:51.490Z,5.32
2023-03-02T10:49:31.890Z,4.80
2023-03-02T10:52:00.417Z,4.18
2023-03-02T10:54:28.958Z,4.10
2023-03-02T10:56:57.364Z,4.72
2023-03-02T10:59:33.707Z,3.15
2023-03-02T11:02:12.560Z,3.53
2023-03-02T11:04:39.821Z,3.45
2023-03-02T11:07:21.168Z,3.78
2023-03-02T11:10:05.709Z,3.22
2023-03-02T11:12:33.763Z,4.47
2023-03-02T11:15:32.983Z,3.80
2023-03-02T11:18:23.043Z,4.10
2023-03-02T11:20:52.668Z,3.28
2023-03-02T11:23:38.339Z,3.72
2023-03-02T11:26:28.157Z,5.90
2023-03-02T11:29:03.374Z,6.22
2023-03-02T11:31:50.503Z,3.38
2023-03-02T11:34:32.663Z,4.13
2023-03-02T11:37:18.293Z,3.22
2023-03-02T11:40:08.466Z,3.50
2023-03-02T11:42:42.973Z,3.65
2023-03-02T11:45:17.949Z,5.05
2023-03-02T11:47:57.464Z,3.97
2023-03-02T11:50:30.559Z,3.42
2023-03-02T11:52:58.883Z,2.92
2023-03-02T11:55:27.212Z,3.42
2023-03-02T12:00:34.237Z,2.38
2023-03-02T12:03:02.736Z,3.15
2023-03-02T12:05:31.994Z,2.80
2023-03-02T12:08:18.772Z,3.42
2023-03-02T12:11:21.571Z,3.75
2023-03-02T12:14:02.099Z,3.42
2023-03-02T12:16:39.347Z,6.67
2023-03-02T12:19:26.648Z,4.28
2023-03-02T12:21:58.693Z,2.80
2023-03-02T12:24:41.072Z,3.15
2023-03-02T12:39:25.407Z,2.72
2023-03-02T12:42:15.940Z,4.22
2023-03-02T12:45:05.214Z,3.33
2023-03-02T12:47:33.087Z,3.60
2023-03-02T12:50:05.064Z,3.67
2023-03-02T12:52:36.128Z,3.75
2023-03-02T12:55:07.892Z,3.55
2023-03-02T12:57:37.737Z,2.38
2023-03-02T13:00:15.226Z,3.05
2023-03-02T13:02:49.395Z,5.45
2023-03-02T13:05:21.464Z,3.03
2023-03-02T13:08:00.195Z,2.97
2023-03-02T13:10:50.411Z,2.70
2023-03-02T13:13:27.662Z,4.18
2023-03-02T13:15:58.982Z,3.08
2023-03-02T13:20:53.292Z,4.05
2023-03-02T13:23:20.348Z,3.95
2023-03-02T13:25:51.574Z,3.47
2023-03-02T13:28:44.735Z,3.78
2023-03-02T13:31:22.487Z,3.85
2023-03-02T13:33:50.722Z,5.10
2023-03-02T13:36:18.783Z,4.88
2023-03-02T13:38:48.455Z,4.22
2023-03-02T13:41:41.934Z,3.05
2023-03-02T13:44:27.991Z,3.65
2023-03-02T13:46:55.545Z,5.47
2023-03-02T13:49:29.870Z,3.83
2023-03-02T13:52:16.892Z,5.35
2023-03-02T13:54:47.393Z,3.70
2023-03-02T13:57:16.246Z,5.37
2023-03-02T13:59:43.566Z,4.18
2023-03-02T14:02:22.679Z,3.33
2023-03-02T14:04:49.551Z,6.40
2023-03-02T14:07:17.852Z,5.22
2023-03-02T14:09:44.805Z,3.85
2023-03-02T14:12:31.450Z,3.53
2023-03-02T14:32:16.933Z,4.13
2023-03-02T14:34:43.797Z,2.97
2023-03-02T14:37:14.952Z,3.90
2023-03-02T14:39:43.658Z,3.80
2023-03-02T14:42:13.093Z,3.15
2023-03-02T14:44:40.537Z,3.60
2023-03-02T14:47:07.687Z,4.28
2023-03-02T14:49:34.574Z,4.10
2023-03-02T14:52:05.363Z,3.58
2023-03-02T14:54:36.877Z,3.33
2023-03-02T14:57:06.486Z,4.07
2023-03-02T14:59:33.637Z,4.25
2023-03-02T15:02:12.995Z,5.25
2023-03-02T15:04:54.255Z,3.67
2023-03-02T15:07:22.074Z,3.60
2023-03-02T15:09:48.955Z,3.72
2023-03-02T15:12:15.881Z,3.58
2023-03-02T15:14:42.701Z,8.70
2023-03-02T15:17:10.365Z,4.35
2023-03-02T15:19:37.219Z,3.95
2023-03-02T15:22:04.679Z,4.93
2023-03-02T15:24:33.349Z,5.00
2023-03-02T15:27:00.824Z,4.10
2023-03-02T15:29:27.724Z,6.20
2023-03-02T15:31:54.885Z,6.22
2023-03-02T15:34:21.988Z,4.32
2023-03-02T15:36:53.638Z,4.15
2023-03-02T15:39:20.451Z,3.47
2023-03-02T15:41:47.330Z,3.90
2023-03-02T15:44:21.904Z,3.45
2023-03-02T15:46:49.822Z,4.18
2023-03-02T15:49:17.179Z,3.70
2023-03-02T15:51:44.053Z,3.20
2023-03-02T15:54:11.869Z,5.47
2023-03-02T15:56:44.122Z,5.40
2023-03-02T15:59:11.738Z,5.57
2023-03-02T16:01:38.715Z,4.50
2023-03-02T16:04:05.665Z,3.38
2023-03-02T16:06:32.799Z,3.88
2023-03-02T16:08:59.904Z,4.78
2023-03-02T16:11:27.495Z,4.68
2023-03-02T16:13:54.536Z,4.93
2023-03-02T16:16:21.916Z,4.75
2023-03-02T16:18:52.525Z,4.95
2023-03-02T16:21:19.512Z,4.80
2023-03-02T16:23:47.209Z,7.55
2023-03-02T16:26:16.386Z,8.38
2023-03-02T16:32:36.571Z,6.13
2023-03-02T16:35:03.831Z,4.78
2023-03-02T16:37:30.727Z,6.97
2023-03-02T16:39:57.637Z,4.55
2023-03-02T16:42:24.538Z,6.80
2023-03-02T16:44:52.145Z,6.18
2023-03-02T16:47:19.308Z,5.38
2023-03-02T16:49:46.156Z,4.93
2023-03-02T16:52:13.327Z,3.83
2023-03-02T16:54:40.426Z,6.22
2023-03-02T16:57:08.545Z,5.15
2023-03-02T16:59:35.560Z,6.65
2023-03-02T17:02:02.754Z,6.32
2023-03-02T17:04:29.607Z,5.55
2023-03-02T17:07:00.877Z,6.05
2023-03-02T17:09:28.481Z,6.13
2023-03-02T17:11:55.382Z,6.43
2023-03-02T17:14:22.820Z,5.95
2023-03-02T17:16:49.608Z,5.07
2023-03-02T17:19:16.426Z,7.25
2023-03-02T17:21:44.214Z,7.13
2023-03-02T17:24:11.352Z,7.97
2023-03-02T17:26:38.282Z,4.60
2023-03-02T17:29:05.991Z,5.03
2023-03-02T17:31:32.984Z,7.57
2023-03-02T17:33:59.793Z,4.85
2023-03-02T17:36:27.021Z,4.18
2023-03-02T17:38:53.954Z,5.32
2023-03-02T17:41:20.933Z,6.10
2023-03-02T17:43:48.102Z,5.00
2023-03-02T17:46:16.567Z,4.88
2023-03-02T17:48:43.709Z,4.20
2023-03-02T17:51:11.958Z,5.43
2023-03-02T17:53:38.949Z,4.90
2023-03-02T17:56:06.258Z,6.45
2023-03-02T17:58:44.178Z,4.32
2023-03-02T18:01:12.403Z,5.07
2023-03-02T18:03:39.486Z,4.18
2023-03-02T18:06:06.812Z,4.88
2023-03-02T18:08:33.870Z,4.60
2023-03-02T18:11:00.875Z,5.22
2023-03-02T18:13:27.816Z,5.78
2023-03-02T18:15:54.737Z,5.85
2023-03-02T18:18:21.643Z,6.97
2023-03-02T18:20:48.631Z,6.55
2023-03-02T18:23:15.830Z,6.65
2023-03-02T18:25:42.750Z,6.85
2023-03-02T18:28:09.610Z,5.95
2023-03-02T18:30:36.626Z,5.28
2023-03-02T18:33:03.622Z,5.90
2023-03-02T18:35:30.745Z,3.53
2023-03-02T18:37:57.741Z,4.68
2023-03-02T18:40:24.660Z,4.13
2023-03-02T18:42:51.626Z,3.97
2023-03-02T18:45:23.893Z,4.35
2023-03-02T18:47:51.416Z,4.75
2023-03-02T18:50:18.839Z,4.00
2023-03-02T18:52:45.789Z,4.45
2023-03-02T18:55:13.370Z,4.13
2023-03-02T18:57:40.556Z,4.55
2023-03-02T19:00:08.458Z,3.72
2023-03-02T19:02:35.906Z,3.42
2023-03-02T19:05:02.890Z,3.83
2023-03-02T19:11:23.559Z,4.57
2023-03-02T19:13:50.537Z,3.55
2023-03-02T19:16:18.688Z,3.40
2023-03-02T19:18:45.768Z,4.47
2023-03-02T19:21:13.066Z,4.25
2023-03-02T19:23:41.170Z,3.47
2023-03-02T19:26:09.034Z,3.38
2023-03-02T19:28:37.722Z,4.43
2023-03-02T19:31:07.091Z,3.42
2023-03-02T19:33:34.098Z,4.57
2023-03-02T19:36:01.329Z,4.18
2023-03-02T19:46:40.276Z,4.80
2023-03-02T19:49:07.202Z,3.78
2023-03-02T19:51:34.610Z,3.47
2023-03-02T19:54:03.974Z,5.55
2023-03-02T19:56:35.100Z,4.60
2023-03-02T19:59:02.084Z,4.53
2023-03-02T20:01:30.505Z,4.18
2023-03-02T20:03:58.260Z,4.18
2023-03-02T20:06:26.388Z,5.03
2023-03-02T20:08:53.407Z,4.68
2023-03-02T20:11:20.391Z,5.50
2023-03-02T20:13:48.405Z,4.47
2023-03-02T20:16:15.282Z,3.75
2023-03-02T20:18:42.772Z,4.25
2023-03-02T20:21:10.248Z,4.82
2023-03-02T20:23:37.476Z,4.47
2023-03-02T20:26:05.345Z,4.75
2023-03-02T20:28:33.447Z,4.55
2023-03-02T20:31:02.215Z,4.75
2023-03-02T20:33:31.958Z,5.18
2023-03-02T20:35:59.329Z,3.70
2023-03-02T20:38:32.409Z,4.13
2023-03-02T20:40:59.986Z,3.85
2023-03-02T20:43:27.545Z,3.72
2023-03-02T20:45:54.937Z,4.43
2023-03-02T20:48:22.518Z,3.95
2023-03-02T20:50:50.336Z,3.83
2023-03-02T20:53:17.266Z,4.00
2023-03-02T20:55:45.985Z,3.75
2023-03-02T20:58:12.910Z,3.65
2023-03-02T21:00:40.495Z,4.25
2023-03-02T21:03:08.343Z,3.67
2023-03-02T21:13:15.994Z,2.78
2023-03-02T21:15:43.664Z,2.65
2023-03-02T21:18:10.599Z,3.03
2023-03-02T21:20:37.879Z,1.98
2023-03-02T21:23:05.394Z,2.50
2023-03-02T21:25:32.420Z,2.80
2023-03-02T21:27:59.290Z,2.58
2023-03-02T21:30:30.644Z,2.97
2023-03-02T21:32:57.779Z,2.83
2023-03-02T21:43:20.440Z,3.03
2023-03-02T21:45:47.351Z,3.50
2023-03-02T21:48:14.688Z,3.03
2023-03-02T21:50:41.720Z,2.38
2023-03-02T21:53:08.692Z,3.15
2023-03-02T21:55:35.865Z,2.47
2023-03-02T21:58:03.000Z,2.08
2023-03-02T22:00:32.856Z,2.15
2023-03-02T22:03:00.003Z,2.30
2023-03-02T22:05:27.334Z,2.50
2023-03-02T22:07:54.579Z,2.40
2023-03-02T22:14:15.967Z,2.75
2023-03-02T22:16:45.245Z,2.70
2023-03-02T22:19:29.094Z,1.95
2023-03-02T22:21:57.016Z,2.22
2023-03-02T22:24:25.231Z,2.22
2023-03-02T22:27:12.400Z,2.85
2023-03-02T22:29:43.543Z,2.25
2023-03-02T22:32:15.887Z,2.80
2023-03-02T22:34:43.890Z,2.97
2023-03-02T22:37:31.015Z,2.60
2023-03-02T22:40:01.364Z,2.28
2023-03-02T22:42:31.267Z,1.75
2023-03-02T22:45:27.571Z,2.03
2023-03-02T22:47:54.430Z,2.53
2023-03-02T22:50:25.823Z,2.15
2023-03-02T22:55:48.619Z,1.90
2023-03-02T22:58:27.943Z,2.58
2023-03-02T23:00:56.686Z,1.85
2023-03-02T23:03:27.121Z,1.95
2023-03-02T23:21:29.509Z,2.42
2023-03-02T23:23:56.391Z,2.40
2023-03-02T23:26:23.255Z,1.85
2023-03-02T23:28:50.861Z,1.95
2023-03-02T23:31:18.668Z,2.35
2023-03-02T23:33:45.675Z,2.08
2023-03-02T23:36:12.779Z,2.58
2023-03-02T23:38:39.694Z,2.40
2023-03-02T23:41:07.674Z,2.47
2023-03-02T23:43:35.135Z,2.67
2023-03-02T23:46:02.173Z,2.55
2023-03-02T23:48:29.099Z,2.28
2023-03-02T23:50:56.551Z,1.90
